Time;durP1;ratioP1;P1;durP2;ratioP2;P2;SDS_P1;SDS_P2;PMS_P1;PMS_P2;Temp;Humidity;BMP_temperature;BMP_pressure;BME280_temperature;BME280_humidity;BME280_pressure;Samples;Min_cycle;Max_cycle;Signal;HPM_P1;HPM_P2
2023/12/26 00:02:07;;;;;;;2.78;1.52;;;10.20;99.90;;;;;;5094025;28;20032;-73
2023/12/26 00:04:33;;;;;;;3.10;1.92;;;10.40;99.90;;;;;;5093940;28;20036;-73
2023/12/26 00:06:59;;;;;;;5.13;1.52;;;10.30;99.90;;;;;;5076361;28;20552;-73
2023/12/26 00:09:24;;;;;;;4.10;1.65;;;10.20;99.90;;;;;;5093610;28;20069;-73
2023/12/26 00:11:50;;;;;;;2.63;1.65;;;10.40;99.90;;;;;;5076695;28;20036;-73
2023/12/26 00:14:17;;;;;;;4.72;1.58;;;10.30;99.90;;;;;;5093411;28;20048;-74
2023/12/26 00:16:43;;;;;;;5.65;1.58;;;10.30;99.90;;;;;;5076407;28;20044;-74
2023/12/26 00:19:08;;;;;;;2.47;1.40;;;10.20;99.90;;;;;;5093476;28;20043;-74
2023/12/26 00:21:35;;;;;;;2.55;1.60;;;10.40;99.90;;;;;;5093565;28;20044;-74
2023/12/26 00:24:01;;;;;;;3.92;1.50;;;10.20;99.90;;;;;;5094646;28;20109;-74
2023/12/26 00:26:27;;;;;;;3.25;1.42;;;10.40;99.90;;;;;;5093143;28;20051;-74
2023/12/26 00:28:53;;;;;;;5.57;1.80;;;10.50;99.90;;;;;;5094264;28;20035;-74
2023/12/26 00:31:19;;;;;;;4.55;1.50;;;10.30;99.90;;;;;;5076302;28;20483;-73
2023/12/26 00:33:44;;;;;;;3.05;1.52;;;10.30;99.90;;;;;;5093039;28;20093;-74
2023/12/26 00:36:18;;;;;;;4.38;1.42;;;10.30;99.90;;;;;;5092916;28;20040;-74
2023/12/26 00:38:46;;;;;;;3.17;1.38;;;10.20;99.90;;;;;;5093123;28;20032;-74
2023/12/26 00:41:16;;;;;;;3.40;1.67;;;10.50;99.90;;;;;;5092901;28;20036;-74
2023/12/26 00:43:42;;;;;;;2.75;1.90;;;10.50;99.90;;;;;;5092982;28;20541;-74
2023/12/26 00:46:08;;;;;;;3.15;2.00;;;10.50;99.90;;;;;;5093985;28;20083;-74
2023/12/26 00:48:37;;;;;;;2.95;1.92;;;10.50;99.90;;;;;;5092702;28;20054;-74
2023/12/26 00:51:03;;;;;;;4.80;1.65;;;10.50;99.90;;;;;;5092870;28;20040;-73
2023/12/26 00:53:29;;;;;;;4.07;1.85;;;10.30;99.90;;;;;;5094022;28;20404;-74
2023/12/26 00:55:55;;;;;;;2.50;1.63;;;10.50;99.90;;;;;;5075851;28;20093;-74
2023/12/26 00:58:20;;;;;;;3.63;1.50;;;10.30;99.90;;;;;;5075969;28;20044;-73
2023/12/26 01:00:46;;;;;;;2.80;1.65;;;10.60;99.90;;;;;;5092736;28;20487;-74
2023/12/26 01:03:12;;;;;;;2.53;1.33;;;10.40;99.90;;;;;;5092794;28;20072;-74
2023/12/26 01:05:37;;;;;;;3.53;0.98;;;10.40;99.90;;;;;;5075911;28;20504;-74
2023/12/26 01:08:04;;;;;;;6.88;1.42;;;10.60;99.90;;;;;;5093491;28;20040;-74
2023/12/26 01:10:29;;;;;;;1.70;1.20;;;10.40;99.90;;;;;;5093631;28;20043;-74
2023/12/26 01:12:55;;;;;;;2.88;1.00;;;10.70;99.90;;;;;;5091761;28;20491;-74
2023/12/26 01:15:21;;;;;;;3.15;1.10;;;10.70;99.90;;;;;;5092370;28;20559;-74
2023/12/26 01:17:47;;;;;;;2.42;1.42;;;10.50;99.90;;;;;;5091915;28;20036;-74
2023/12/26 01:20:13;;;;;;;2.15;0.85;;;10.50;99.90;;;;;;5092334;28;20046;-74
2023/12/26 01:22:38;;;;;;;4.95;1.20;;;10.70;99.90;;;;;;5092268;28;20119;-74
2023/12/26 01:25:05;;;;;;;1.52;0.90;;;10.60;99.90;;;;;;5092100;28;20067;-74
2023/12/26 01:27:31;;;;;;;1.92;0.80;;;10.60;99.90;;;;;;5091736;28;20043;-74
2023/12/26 01:29:57;;;;;;;4.47;1.20;;;10.60;99.90;;;;;;5092061;28;20123;-74
2023/12/26 01:32:22;;;;;;;5.75;1.63;;;10.40;99.90;;;;;;5093360;28;20118;-74
2023/12/26 01:34:48;;;;;;;5.75;1.92;;;10.50;99.90;;;;;;5091853;28;20587;-74
2023/12/26 01:37:14;;;;;;;6.75;1.10;;;10.60;99.90;;;;;;5091652;28;20107;-73
2023/12/26 01:39:40;;;;;;;4.05;1.30;;;10.60;99.90;;;;;;5074925;28;20047;-75
2023/12/26 01:42:06;;;;;;;3.10;0.80;;;10.50;99.90;;;;;;5091793;28;20035;-75
2023/12/26 01:44:31;;;;;;;3.85;1.23;;;10.50;99.90;;;;;;5074907;28;20081;-74
2023/12/26 01:46:58;;;;;;;4.38;1.15;;;10.50;99.90;;;;;;5091536;28;20036;-74
2023/12/26 01:49:24;;;;;;;6.03;1.08;;;10.50;99.90;;;;;;5091951;28;20044;-74
2023/12/26 01:51:51;;;;;;;8.30;1.85;;;10.50;99.90;;;;;;5091886;28;20051;-74
2023/12/26 01:54:18;;;;;;;7.18;1.25;;;10.40;99.90;;;;;;5074643;28;20036;-74
2023/12/26 01:56:46;;;;;;;3.65;1.40;;;10.70;99.90;;;;;;5091383;28;20040;-73
2023/12/26 01:59:12;;;;;;;4.25;1.08;;;10.70;99.90;;;;;;5074529;28;20048;-73
2023/12/26 02:01:37;;;;;;;7.20;1.20;;;10.60;99.90;;;;;;5091384;28;20050;-74
2023/12/26 02:04:03;;;;;;;7.50;1.33;;;10.60;99.90;;;;;;5091352;28;20480;-74
2023/12/26 02:06:31;;;;;;;6.22;1.40;;;10.60;99.90;;;;;;5073679;28;20498;-74
2023/12/26 02:08:57;;;;;;;7.43;1.40;;;10.60;99.90;;;;;;5082775;28;20475;-74
2023/12/26 02:11:22;;;;;;;15.30;2.65;;;10.60;99.90;;;;;;5091115;28;20055;-74
2023/12/26 02:13:48;;;;;;;7.32;1.50;;;10.60;99.90;;;;;;5091195;28;20032;-74
2023/12/26 02:16:18;;;;;;;6.70;1.48;;;10.60;99.90;;;;;;5090704;28;20483;-74
2023/12/26 02:18:44;;;;;;;12.15;2.20;;;10.60;99.90;;;;;;5082248;28;20549;-74
2023/12/26 02:21:10;;;;;;;12.07;1.92;;;10.50;99.90;;;;;;5090893;28;20111;-74
2023/12/26 02:23:37;;;;;;;11.25;1.65;;;10.50;99.90;;;;;;5073379;28;20084;-74
2023/12/26 02:26:04;;;;;;;10.45;1.90;;;10.50;99.90;;;;;;5091106;28;20043;-74
2023/12/26 02:28:32;;;;;;;23.40;2.80;;;10.60;99.90;;;;;;5090818;28;20048;-74
2023/12/26 02:31:01;;;;;;;10.50;2.35;;;10.60;99.90;;;;;;5091177;28;20070;-74
2023/12/26 02:33:28;;;;;;;11.13;2.03;;;10.60;99.90;;;;;;5090801;28;20039;-74
2023/12/26 02:35:54;;;;;;;10.38;2.40;;;10.50;99.90;;;;;;5090606;28;20036;-74
2023/12/26 02:38:20;;;;;;;17.55;2.92;;;10.50;99.90;;;;;;5090563;28;20136;-74
2023/12/26 02:40:51;;;;;;;15.27;2.45;;;10.50;99.90;;;;;;5082548;28;20079;-74
2023/12/26 02:43:20;;;;;;;18.48;3.53;;;10.60;99.90;;;;;;5073974;28;20125;-74
2023/12/26 02:45:48;;;;;;;13.32;2.85;;;10.50;99.90;;;;;;5073894;28;20047;-73
2023/12/26 02:48:17;;;;;;;10.75;2.80;;;10.40;99.90;;;;;;5115938;22;20116;-77
2023/12/26 02:50:44;;;;;;;13.38;2.85;;;10.50;99.90;;;;;;5095833;28;20119;-77
2023/12/26 02:53:10;;;;;;;12.65;2.83;;;10.60;99.90;;;;;;5095649;28;20039;-77
2023/12/26 02:55:35;;;;;;;16.27;3.97;;;10.60;99.90;;;;;;5095665;28;20079;-78
2023/12/26 02:58:01;;;;;;;9.32;2.28;;;10.50;99.90;;;;;;5096265;28;20039;-77
2023/12/26 03:00:26;;;;;;;9.93;2.28;;;10.50;99.90;;;;;;5094003;28;20035;-77
2023/12/26 03:02:52;;;;;;;8.65;1.73;;;10.40;99.90;;;;;;5076563;28;20154;-77
2023/12/26 03:05:18;;;;;;;9.27;2.30;;;10.40;99.90;;;;;;5093930;28;20069;-77
2023/12/26 03:07:43;;;;;;;16.48;3.78;;;10.30;99.90;;;;;;5092929;28;20518;-77
2023/12/26 03:10:09;;;;;;;14.43;1.67;;;10.30;99.90;;;;;;5093434;28;20541;-77
2023/12/26 03:12:38;;;;;;;6.03;1.65;;;10.30;99.90;;;;;;5094449;28;20040;-77
2023/12/26 03:15:04;;;;;;;7.55;2.28;;;10.20;99.90;;;;;;5092345;28;20047;-77
2023/12/26 03:17:29;;;;;;;10.68;1.83;;;10.30;99.90;;;;;;5094058;28;20146;-77
2023/12/26 03:19:56;;;;;;;9.75;1.90;;;10.10;99.90;;;;;;5093284;28;20063;-77
2023/12/26 03:22:21;;;;;;;10.57;2.20;;;10.10;99.90;;;;;;5093166;28;20067;-77
2023/12/26 03:24:47;;;;;;;8.13;2.08;;;10.00;99.90;;;;;;5077948;28;20040;-77
2023/12/26 03:27:14;;;;;;;14.75;3.17;;;10.10;99.90;;;;;;5094511;28;20055;-78
2023/12/26 03:29:40;;;;;;;8.52;1.75;;;10.00;99.90;;;;;;5092922;28;20032;-77
2023/12/26 03:32:08;;;;;;;11.10;3.25;;;10.10;99.90;;;;;;5094873;28;20036;-77
2023/12/26 03:34:34;;;;;;;9.15;1.80;;;10.10;99.90;;;;;;5093318;28;20093;-77
2023/12/26 03:36:59;;;;;;;8.77;2.92;;;10.00;99.90;;;;;;5098378;28;20032;-77
2023/12/26 03:39:25;;;;;;;9.52;2.15;;;9.90;99.90;;;;;;5098943;28;20047;-77
2023/12/26 03:41:51;;;;;;;7.85;2.42;;;9.90;99.90;;;;;;5099535;28;20043;-77
2023/12/26 03:44:17;;;;;;;10.35;2.03;;;9.90;99.90;;;;;;5098213;28;20040;-77
2023/12/26 03:46:43;;;;;;;8.40;2.05;;;10.00;99.90;;;;;;5097293;28;20043;-77
2023/12/26 03:49:10;;;;;;;8.02;2.55;;;9.90;99.90;;;;;;5099539;28;20040;-77
2023/12/26 03:51:36;;;;;;;14.00;3.03;;;9.90;99.90;;;;;;5098464;28;20044;-77
2023/12/26 03:54:02;;;;;;;13.45;2.28;;;9.80;99.90;;;;;;5097917;28;20076;-77
2023/12/26 03:56:32;;;;;;;12.68;2.22;;;9.90;99.90;;;;;;5097569;28;20089;-78
2023/12/26 03:58:59;;;;;;;8.40;2.47;;;9.80;99.90;;;;;;5082098;28;20032;-77
2023/12/26 04:01:26;;;;;;;15.40;2.50;;;9.80;99.90;;;;;;5098492;28;20048;-78
2023/12/26 04:03:52;;;;;;;10.25;2.30;;;9.80;99.90;;;;;;5098085;28;20630;-77
2023/12/26 04:06:18;;;;;;;11.13;2.28;;;9.80;99.90;;;;;;5098577;28;20047;-77
2023/12/26 04:08:44;;;;;;;12.82;2.97;;;9.70;99.90;;;;;;5097920;28;20040;-78
2023/12/26 04:11:10;;;;;;;16.15;2.85;;;9.70;99.90;;;;;;5100288;28;20121;-77
2023/12/26 04:13:36;;;;;;;11.73;2.22;;;9.60;99.90;;;;;;5097855;28;20118;-77
2023/12/26 04:16:05;;;;;;;11.88;2.88;;;9.60;99.90;;;;;;5098152;28;20070;-77
2023/12/26 04:18:32;;;;;;;7.13;1.70;;;9.50;99.90;;;;;;5096684;28;20039;-77
2023/12/26 04:20:58;;;;;;;11.88;2.05;;;9.50;99.90;;;;;;5096690;28;20040;-77
2023/12/26 04:23:24;;;;;;;13.10;2.47;;;9.40;99.90;;;;;;5098791;28;20044;-77
2023/12/26 04:25:50;;;;;;;13.10;2.75;;;9.40;99.90;;;;;;5095899;28;20039;-77
2023/12/26 04:28:15;;;;;;;25.27;4.35;;;9.30;99.90;;;;;;5097302;28;20094;-78
2023/12/26 04:30:41;;;;;;;9.70;2.30;;;9.30;99.90;;;;;;5096178;28;20514;-77
2023/12/26 04:33:07;;;;;;;9.93;2.42;;;9.20;99.90;;;;;;5079808;28;20039;-77
2023/12/26 04:35:36;;;;;;;18.77;3.13;;;9.20;99.90;;;;;;5096964;28;20164;-77
2023/12/26 04:38:03;;;;;;;10.73;2.60;;;9.20;99.90;;;;;;5097235;28;20487;-77
2023/12/26 04:40:28;;;;;;;15.98;2.60;;;9.10;99.90;;;;;;5096459;28;20169;-77
2023/12/26 04:42:54;;;;;;;16.30;3.22;;;9.10;99.90;;;;;;5097412;28;20063;-77
2023/12/26 04:45:20;;;;;;;13.80;3.45;;;9.10;99.90;;;;;;5080310;28;20035;-77
2023/12/26 04:47:45;;;;;;;15.93;2.63;;;9.20;99.90;;;;;;5096531;28;20499;-77
2023/12/26 04:50:11;;;;;;;11.60;3.17;;;9.20;99.90;;;;;;5095719;28;20028;-77
2023/12/26 04:52:37;;;;;;;12.70;2.83;;;9.10;99.90;;;;;;5078207;28;20036;-78
2023/12/26 04:55:03;;;;;;;13.38;2.67;;;9.00;99.90;;;;;;5096935;28;20031;-77
2023/12/26 04:57:29;;;;;;;8.27;2.03;;;9.00;99.90;;;;;;5096019;28;20474;-78
2023/12/26 04:59:55;;;;;;;23.08;2.97;;;9.00;99.90;;;;;;5096886;28;20036;-78
2023/12/26 05:02:21;;;;;;;14.65;2.92;;;8.90;99.90;;;;;;5096540;28;20442;-77
2023/12/26 05:04:46;;;;;;;10.35;2.60;;;8.90;99.90;;;;;;5096936;28;20513;-77
2023/12/26 05:07:13;;;;;;;18.38;2.38;;;8.90;99.90;;;;;;5096252;28;20384;-77
2023/12/26 05:09:38;;;;;;;19.15;4.60;;;8.90;99.90;;;;;;5095878;28;20048;-77
2023/12/26 05:12:04;;;;;;;11.20;2.25;;;8.80;99.90;;;;;;5095387;28;20055;-77
2023/12/26 05:14:30;;;;;;;16.40;3.42;;;8.90;99.90;;;;;;5095169;28;20044;-77
2023/12/26 05:16:56;;;;;;;11.55;3.00;;;8.80;99.90;;;;;;5094762;28;20411;-77
2023/12/26 05:19:22;;;;;;;18.00;2.95;;;8.80;99.90;;;;;;5096970;28;20105;-77
2023/12/26 05:21:47;;;;;;;16.95;3.03;;;8.80;99.90;;;;;;5096732;28;20036;-77
2023/12/26 05:24:13;;;;;;;13.52;2.75;;;8.80;99.90;;;;;;5096657;28;20468;-77
2023/12/26 05:26:43;;;;;;;16.63;2.58;;;8.80;99.90;;;;;;5094382;28;20040;-77
2023/12/26 05:29:10;;;;;;;11.52;2.92;;;8.80;99.90;;;;;;5095601;28;20434;-77
2023/12/26 05:31:36;;;;;;;12.50;2.30;;;8.80;99.90;;;;;;5094543;28;20051;-77
2023/12/26 05:34:03;;;;;;;14.15;2.38;;;8.80;99.90;;;;;;5096041;28;20123;-77
2023/12/26 05:36:29;;;;;;;18.80;2.90;;;8.90;99.90;;;;;;5095084;28;20042;-78
2023/12/26 05:38:55;;;;;;;16.48;2.70;;;8.90;99.90;;;;;;5096236;28;20118;-77
2023/12/26 05:41:20;;;;;;;12.10;3.25;;;9.00;99.90;;;;;;5094886;28;20652;-77
2023/12/26 05:43:47;;;;;;;13.45;3.78;;;9.00;99.90;;;;;;5078048;28;20036;-77
2023/12/26 05:46:12;;;;;;;12.40;3.25;;;9.00;99.90;;;;;;5094710;28;20617;-78
2023/12/26 05:48:41;;;;;;;7.22;2.40;;;9.00;99.90;;;;;;5096106;28;20126;-78
2023/12/26 05:51:07;;;;;;;11.77;3.38;;;9.00;99.90;;;;;;5095789;28;20065;-78
2023/12/26 05:53:33;;;;;;;7.80;2.33;;;9.00;99.90;;;;;;5094918;28;20048;-78
2023/12/26 05:55:59;;;;;;;10.60;2.42;;;9.10;99.90;;;;;;5095439;28;20603;-77
2023/12/26 05:58:25;;;;;;;14.30;2.05;;;9.10;99.90;;;;;;5095023;28;20543;-77
2023/12/26 06:00:51;;;;;;;13.07;2.50;;;9.00;99.90;;;;;;5096043;28;20028;-77
2023/12/26 06:03:16;;;;;;;15.90;3.05;;;9.10;99.90;;;;;;5078683;28;20506;-77
2023/12/26 06:05:42;;;;;;;15.73;2.85;;;9.10;99.90;;;;;;5095294;28;20044;-77
2023/12/26 06:08:08;;;;;;;11.95;2.10;;;9.10;99.90;;;;;;5094541;28;20115;-78
2023/12/26 06:10:34;;;;;;;8.27;2.70;;;9.10;99.90;;;;;;5095751;28;20071;-78
2023/12/26 06:13:00;;;;;;;10.93;2.35;;;9.10;99.90;;;;;;5094875;28;20555;-77
2023/12/26 06:15:26;;;;;;;12.98;2.88;;;9.10;99.90;;;;;;5095304;28;20114;-77
2023/12/26 06:17:51;;;;;;;6.07;1.70;;;9.20;99.90;;;;;;5094700;28;20119;-77
2023/12/26 06:20:21;;;;;;;11.35;1.90;;;9.10;99.90;;;;;;5094949;28;20040;-77
2023/12/26 06:22:47;;;;;;;9.95;2.05;;;9.10;99.90;;;;;;5077229;28;20410;-77
2023/12/26 06:25:12;;;;;;;9.32;2.42;;;9.10;99.90;;;;;;5093867;28;20076;-77
2023/12/26 06:27:38;;;;;;;13.60;2.67;;;9.10;99.90;;;;;;5094876;28;20036;-77
2023/12/26 06:30:04;;;;;;;13.30;2.75;;;9.00;99.90;;;;;;5077290;28;20411;-77
2023/12/26 06:32:30;;;;;;;6.78;2.08;;;9.00;99.90;;;;;;5094651;28;20080;-77
2023/12/26 06:34:56;;;;;;;8.30;1.88;;;9.00;99.90;;;;;;5094539;28;20040;-77
2023/12/26 06:37:21;;;;;;;13.45;2.92;;;9.10;99.90;;;;;;5076237;28;20449;-77
2023/12/26 06:39:47;;;;;;;10.40;2.92;;;9.00;99.90;;;;;;5094902;28;20749;-77
2023/12/26 06:42:13;;;;;;;13.68;3.13;;;9.10;99.90;;;;;;5093359;28;20036;-77
2023/12/26 06:44:40;;;;;;;9.32;1.88;;;9.00;99.90;;;;;;5094891;28;20036;-77
2023/12/26 06:47:06;;;;;;;10.30;1.90;;;9.10;99.90;;;;;;5075046;28;20108;-77
2023/12/26 06:49:31;;;;;;;11.63;1.83;;;9.00;99.90;;;;;;5093981;28;20040;-77
2023/12/26 06:51:59;;;;;;;7.72;2.03;;;9.00;99.90;;;;;;5094385;28;20453;-77
2023/12/26 06:54:25;;;;;;;14.60;2.38;;;9.00;99.90;;;;;;5095364;28;20040;-77
2023/12/26 06:56:50;;;;;;;15.43;3.05;;;9.00;99.90;;;;;;5094158;28;20519;-77
2023/12/26 06:59:16;;;;;;;8.80;2.30;;;9.00;99.90;;;;;;5094568;28;20059;-77
2023/12/26 07:01:50;;;;;;;14.88;2.63;;;9.10;99.90;;;;;;5077669;28;20099;-77
2023/12/26 07:04:16;;;;;;;8.38;2.13;;;9.00;99.90;;;;;;5093881;28;20051;-77
2023/12/26 07:06:42;;;;;;;14.60;2.38;;;9.10;99.90;;;;;;5093054;28;20439;-77
2023/12/26 07:09:07;;;;;;;20.88;2.70;;;9.10;99.90;;;;;;5092242;28;20089;-77
2023/12/26 07:11:33;;;;;;;15.55;2.92;;;9.20;99.90;;;;;;5093634;28;20407;-77
2023/12/26 07:13:58;;;;;;;15.48;2.83;;;9.10;99.90;;;;;;5093651;28;20047;-77
2023/12/26 07:16:24;;;;;;;13.40;3.13;;;9.20;99.90;;;;;;5092480;28;20043;-77
2023/12/26 07:18:50;;;;;;;11.35;2.75;;;9.10;99.90;;;;;;5093637;28;20403;-77
2023/12/26 07:21:17;;;;;;;15.32;2.83;;;9.20;99.90;;;;;;5076412;28;20501;-77
2023/12/26 07:23:46;;;;;;;11.35;2.22;;;9.20;99.90;;;;;;5092466;28;20051;-77
2023/12/26 07:26:12;;;;;;;12.10;2.72;;;9.20;99.90;;;;;;5092060;28;20044;-77
2023/12/26 07:28:38;;;;;;;13.57;3.50;;;9.20;99.90;;;;;;5093593;28;20054;-77
2023/12/26 07:31:04;;;;;;;14.68;3.35;;;9.10;99.90;;;;;;5094864;28;20507;-77
2023/12/26 07:33:29;;;;;;;9.30;2.90;;;9.10;99.90;;;;;;5094658;28;20043;-77
2023/12/26 07:35:57;;;;;;;10.45;2.42;;;9.10;99.90;;;;;;5094614;28;20051;-77
2023/12/26 07:38:26;;;;;;;12.25;3.50;;;9.10;99.90;;;;;;5093586;28;20036;-77
2023/12/26 07:40:52;;;;;;;15.60;2.95;;;9.00;99.90;;;;;;5092612;28;20121;-77
2023/12/26 07:43:18;;;;;;;15.43;2.80;;;9.00;99.90;;;;;;5092624;28;20044;-78
2023/12/26 07:45:43;;;;;;;24.80;4.50;;;9.10;99.90;;;;;;5093584;28;20101;-77
2023/12/26 07:48:10;;;;;;;15.07;2.30;;;9.20;99.90;;;;;;5092538;28;20571;-77
2023/12/26 07:50:36;;;;;;;13.57;4.45;;;9.10;99.90;;;;;;5093065;28;20046;-78
2023/12/26 07:53:04;;;;;;;13.95;3.67;;;9.20;99.90;;;;;;5093411;28;20036;-78
2023/12/26 07:55:32;;;;;;;12.15;3.05;;;9.20;99.90;;;;;;5092354;28;20449;-78
2023/12/26 07:57:58;;;;;;;12.70;1.90;;;9.20;99.90;;;;;;5091360;28;20407;-77
2023/12/26 08:00:23;;;;;;;11.95;3.00;;;9.20;99.90;;;;;;5092721;28;20043;-77
2023/12/26 08:02:49;;;;;;;9.02;2.40;;;9.20;99.90;;;;;;5093041;28;20040;-78
2023/12/26 08:05:15;;;;;;;15.90;3.78;;;9.20;99.90;;;;;;5095480;28;20036;-77
2023/12/26 08:07:41;;;;;;;15.10;2.70;;;9.20;99.90;;;;;;5092868;28;20040;-77
2023/12/26 08:10:07;;;;;;;12.65;2.72;;;9.20;99.90;;;;;;5094125;28;20514;-77
2023/12/26 08:12:33;;;;;;;11.82;2.78;;;9.20;99.90;;;;;;5076002;28;20028;-77
2023/12/26 08:14:58;;;;;;;15.63;3.03;;;9.10;99.90;;;;;;5094050;28;20051;-77
2023/12/26 08:17:24;;;;;;;19.30;2.70;;;9.20;99.90;;;;;;5091203;28;20040;-79
2023/12/26 08:19:49;;;;;;;13.77;2.63;;;9.20;99.90;;;;;;5092409;28;20035;-78
2023/12/26 08:22:16;;;;;;;13.18;3.00;;;9.10;99.90;;;;;;5094871;28;20518;-76
2023/12/26 08:24:41;;;;;;;16.27;2.22;;;9.20;99.90;;;;;;5098968;28;20037;-76
2023/12/26 08:27:07;;;;;;;10.13;2.95;;;9.20;99.90;;;;;;5095675;28;20046;-76
2023/12/26 08:29:33;;;;;;;16.92;2.70;;;9.10;99.90;;;;;;5082737;28;20127;-77
2023/12/26 08:31:58;;;;;;;7.07;1.83;;;9.00;99.90;;;;;;5097275;28;20036;-78
2023/12/26 08:34:25;;;;;;;13.25;2.95;;;9.10;99.90;;;;;;5098531;28;20436;-77
2023/12/26 08:36:51;;;;;;;14.52;2.67;;;9.10;99.90;;;;;;5096808;28;20043;-77
2023/12/26 08:39:17;;;;;;;14.13;3.67;;;9.10;99.90;;;;;;5082665;28;20032;-77
2023/12/26 08:41:43;;;;;;;8.63;2.20;;;9.10;99.90;;;;;;5097190;28;20032;-76
2023/12/26 08:44:09;;;;;;;12.65;2.92;;;9.10;99.90;;;;;;5091553;28;20115;-76
2023/12/26 08:46:35;;;;;;;15.75;3.05;;;9.10;99.90;;;;;;5093850;28;20495;-77
2023/12/26 08:49:02;;;;;;;15.38;2.42;;;9.10;99.90;;;;;;5095402;28;20046;-77
2023/12/26 08:51:28;;;;;;;11.38;2.28;;;9.10;99.90;;;;;;5099057;28;20036;-77
2023/12/26 08:53:54;;;;;;;14.10;2.35;;;9.20;99.90;;;;;;5079438;28;20094;-77
2023/12/26 08:56:21;;;;;;;19.25;3.78;;;9.20;99.90;;;;;;5095256;28;20111;-76
2023/12/26 08:58:47;;;;;;;11.25;2.85;;;9.20;99.90;;;;;;5095166;28;20043;-77
2023/12/26 09:01:12;;;;;;;13.05;3.00;;;9.30;99.90;;;;;;5095701;28;20036;-76
2023/12/26 09:03:38;;;;;;;14.98;3.25;;;9.20;99.90;;;;;;5094420;28;20492;-76
2023/12/26 09:06:04;;;;;;;15.13;2.92;;;9.20;99.90;;;;;;5094289;28;20108;-76
2023/12/26 09:08:30;;;;;;;10.00;2.53;;;9.20;99.90;;;;;;5094734;28;20178;-76
2023/12/26 09:10:55;;;;;;;18.55;3.20;;;9.20;99.90;;;;;;5097418;28;20044;-77
2023/12/26 09:13:21;;;;;;;14.43;3.10;;;9.20;99.90;;;;;;5094956;28;20063;-78
2023/12/26 09:15:48;;;;;;;14.85;3.78;;;9.20;99.90;;;;;;5095590;28;20070;-76
2023/12/26 09:18:15;;;;;;;14.75;2.38;;;9.20;99.90;;;;;;5095070;28;20095;-77
2023/12/26 09:20:41;;;;;;;14.88;2.72;;;9.30;99.90;;;;;;5091951;28;20111;-77
2023/12/26 09:23:07;;;;;;;17.30;2.58;;;9.30;99.90;;;;;;5082598;28;20063;-77
2023/12/26 09:25:32;;;;;;;11.70;2.58;;;9.30;99.90;;;;;;5079409;28;20055;-78
2023/12/26 09:27:58;;;;;;;9.20;2.22;;;9.30;99.90;;;;;;5090649;28;20066;-77
2023/12/26 09:30:23;;;;;;;19.75;3.35;;;9.30;99.90;;;;;;5077880;28;20492;-77
2023/12/26 09:32:49;;;;;;;9.93;2.28;;;9.40;99.90;;;;;;5093616;28;20082;-77
2023/12/26 09:35:15;;;;;;;15.45;3.10;;;9.40;99.90;;;;;;5095714;28;20044;-77
2023/12/26 09:37:41;;;;;;;10.65;2.13;;;9.40;99.90;;;;;;5084036;28;20036;-78
2023/12/26 09:40:08;;;;;;;14.18;3.15;;;9.40;99.90;;;;;;5093471;28;20036;-79
2023/12/26 09:42:34;;;;;;;11.43;3.00;;;9.40;99.90;;;;;;5075768;28;20036;-78
2023/12/26 09:45:00;;;;;;;12.57;3.42;;;9.40;99.90;;;;;;5092192;28;20237;-78
2023/12/26 09:47:29;;;;;;;14.65;2.50;;;9.40;99.90;;;;;;5093837;28;20503;-78
2023/12/26 09:49:55;;;;;;;15.95;3.10;;;9.40;99.90;;;;;;5094987;28;20544;-77
2023/12/26 09:52:22;;;;;;;16.95;3.38;;;9.40;99.90;;;;;;5093742;28;20036;-77
2023/12/26 09:54:49;;;;;;;18.10;3.22;;;9.50;99.90;;;;;;5093455;28;20067;-78
2023/12/26 09:57:15;;;;;;;11.13;3.65;;;9.50;99.90;;;;;;5092714;28;20042;-79
2023/12/26 09:59:42;;;;;;;14.18;2.70;;;9.40;99.90;;;;;;5093064;28;20035;-78
2023/12/26 10:02:12;;;;;;;17.50;3.95;;;9.50;99.90;;;;;;5096312;28;20411;-77
2023/12/26 10:04:38;;;;;;;17.40;3.63;;;9.50;99.90;;;;;;5099037;28;20057;-76
2023/12/26 10:07:04;;;;;;;20.90;3.72;;;9.50;99.90;;;;;;5098501;28;20043;-78
2023/12/26 10:09:30;;;;;;;11.43;2.83;;;9.50;99.90;;;;;;5093643;28;20040;-78
2023/12/26 10:11:55;;;;;;;17.17;2.92;;;9.50;99.90;;;;;;5095224;28;20495;-77
2023/12/26 10:14:29;;;;;;;11.07;3.05;;;9.50;99.90;;;;;;5093532;28;20052;-79
2023/12/26 10:16:55;;;;;;;16.05;3.38;;;9.40;99.90;;;;;;5092467;28;20081;-80
2023/12/26 10:19:21;;;;;;;14.52;3.22;;;9.50;99.90;;;;;;5105604;28;20040;-80
2023/12/26 10:21:47;;;;;;;15.27;2.67;;;9.50;99.90;;;;;;5101032;28;20408;-80
2023/12/26 10:24:13;;;;;;;8.65;2.65;;;9.50;99.90;;;;;;5102430;28;20036;-79
2023/12/26 10:26:38;;;;;;;11.10;3.13;;;9.60;99.90;;;;;;5099667;28;20579;-79
2023/12/26 10:29:04;;;;;;;18.10;3.58;;;9.70;99.90;;;;;;5089542;28;20036;-79
2023/12/26 10:31:30;;;;;;;8.93;3.22;;;9.60;99.90;;;;;;5092188;28;20040;-77
2023/12/26 10:33:56;;;;;;;15.88;3.55;;;9.70;99.90;;;;;;5083092;28;20039;-76
2023/12/26 10:36:21;;;;;;;12.00;3.80;;;9.70;99.90;;;;;;5067984;28;20040;-80
2023/12/26 10:38:48;;;;;;;13.52;2.60;;;9.80;99.90;;;;;;5099180;28;20024;-80
2023/12/26 10:41:27;;;;;;;13.70;4.10;;;9.80;99.90;;;;;;5086743;28;20095;-78
2023/12/26 10:43:59;;;;;;;22.40;3.85;;;9.80;99.90;;;;;;5088860;28;20040;-77
2023/12/26 10:46:26;;;;;;;13.18;2.67;;;9.80;99.90;;;;;;5077154;28;20209;-78
2023/12/26 10:48:56;;;;;;;16.58;4.93;;;9.80;99.90;;;;;;5075382;28;20103;-77
2023/12/26 10:51:26;;;;;;;12.10;2.45;;;9.80;99.90;;;;;;5072723;28;20048;-77
2023/12/26 10:53:56;;;;;;;16.27;4.53;;;9.80;99.90;;;;;;5069751;28;20079;-77
2023/12/26 10:56:23;;;;;;;12.02;3.05;;;9.80;99.90;;;;;;5090819;28;20036;-78
2023/12/26 10:58:52;;;;;;;17.92;4.30;;;9.90;99.90;;;;;;5094592;28;20040;-77
2023/12/26 13:53:34;;;;;;;2.22;0.68;;;8.70;99.90;;;;;;5072754;28;20040;-78
2023/12/26 13:56:37;;;;;;;5.53;0.93;;;8.70;99.90;;;;;;5071907;28;20060;-76
2023/12/26 13:59:41;;;;;;;3.80;0.60;;;8.70;99.90;;;;;;5071983;28;20047;-78
2023/12/26 14:02:44;;;;;;;7.95;0.68;;;8.80;99.90;;;;;;5069808;28;20627;-76
2023/12/26 14:05:48;;;;;;;2.33;0.88;;;8.80;99.90;;;;;;5084867;28;20072;-77
2023/12/26 14:08:51;;;;;;;9.23;1.03;;;8.70;99.90;;;;;;5084250;28;20036;-77
2023/12/26 14:11:54;;;;;;;7.97;1.13;;;8.70;99.90;;;;;;5083989;28;20291;-77
2023/12/26 14:14:57;;;;;;;3.47;0.60;;;8.70;99.90;;;;;;5072067;28;20041;-77
2023/12/26 14:18:00;;;;;;;5.10;0.70;;;8.70;99.90;;;;;;5071572;28;20040;-76
2023/12/26 14:21:03;;;;;;;4.30;0.80;;;8.70;99.90;;;;;;5073348;28;20515;-77
2023/12/26 14:24:06;;;;;;;6.78;1.90;;;8.70;99.90;;;;;;5071494;28;20044;-77
2023/12/26 14:27:10;;;;;;;5.47;1.23;;;8.60;99.90;;;;;;5072144;28;20044;-76
2023/12/26 14:30:13;;;;;;;5.90;1.03;;;8.50;99.90;;;;;;5092297;28;20086;-76
2023/12/26 14:33:19;;;;;;;4.28;0.70;;;8.40;99.90;;;;;;5091566;28;20293;-76
2023/12/26 14:36:23;;;;;;;6.88;0.85;;;8.40;99.90;;;;;;5080038;28;20051;-77
2023/12/26 14:39:26;;;;;;;11.77;1.27;;;8.40;99.90;;;;;;5068011;28;20040;-77
2023/12/26 14:42:29;;;;;;;4.17;0.77;;;8.30;99.90;;;;;;5077853;28;20524;-77
2023/12/26 14:45:33;;;;;;;7.03;1.60;;;8.30;99.90;;;;;;5068984;28;20032;-77
2023/12/26 14:48:36;;;;;;;4.30;1.25;;;8.20;99.90;;;;;;5096294;22;20045;-72
2023/12/26 14:51:39;;;;;;;5.40;1.43;;;8.10;99.90;;;;;;5064017;28;20041;-72
2023/12/26 14:54:42;;;;;;;5.90;1.00;;;8.10;99.90;;;;;;5071410;28;20091;-72
2023/12/26 14:57:45;;;;;;;5.70;0.93;;;8.10;99.90;;;;;;5069653;28;20127;-72
2023/12/26 15:00:49;;;;;;;4.57;0.70;;;8.10;99.90;;;;;;5060105;28;20040;-72
2023/12/26 15:03:14;;;;;;;4.38;0.93;;;8.00;99.90;;;;;;5053394;28;20392;-72
2023/12/26 15:05:40;;;;;;;6.55;1.63;;;8.00;99.90;;;;;;5070068;28;20032;-72
2023/12/26 15:08:06;;;;;;;3.85;1.00;;;8.00;99.90;;;;;;5069671;28;20044;-72
2023/12/26 15:10:32;;;;;;;7.97;1.30;;;7.90;99.90;;;;;;5071429;28;20052;-72
2023/12/26 15:12:57;;;;;;;7.55;1.92;;;7.90;99.90;;;;;;5053366;28;20299;-72
2023/12/26 15:15:23;;;;;;;5.65;0.93;;;7.90;99.90;;;;;;5069880;28;20418;-72
2023/12/26 15:17:48;;;;;;;7.30;1.08;;;7.90;99.90;;;;;;5069519;28;20037;-72
2023/12/26 15:20:14;;;;;;;4.35;0.82;;;7.90;99.90;;;;;;5069865;28;20078;-72
2023/12/26 15:22:40;;;;;;;7.53;1.50;;;7.80;99.90;;;;;;5069958;28;20085;-72
2023/12/26 15:25:06;;;;;;;4.03;0.90;;;7.80;99.90;;;;;;5069924;28;20434;-71
2023/12/26 15:27:32;;;;;;;5.60;0.98;;;7.80;99.90;;;;;;5071000;28;20050;-72
2023/12/26 15:29:57;;;;;;;4.97;1.20;;;7.80;99.90;;;;;;5070000;28;20037;-72
2023/12/26 15:32:23;;;;;;;11.80;3.38;;;7.80;99.90;;;;;;5075000;28;20036;-72
2023/12/26 15:34:49;;;;;;;6.57;1.60;;;7.80;99.90;;;;;;5075278;28;20744;-72
2023/12/26 15:37:14;;;;;;;8.10;1.33;;;7.80;99.90;;;;;;5056657;28;20240;-72
2023/12/26 15:39:40;;;;;;;4.88;1.42;;;7.70;99.90;;;;;;5073857;28;20039;-72
2023/12/26 15:42:07;;;;;;;4.32;0.95;;;7.70;99.90;;;;;;5074952;28;20044;-72
2023/12/26 15:44:33;;;;;;;6.45;1.45;;;7.60;99.90;;;;;;5074990;28;20418;-72
2023/12/26 15:46:58;;;;;;;10.35;1.50;;;7.60;99.90;;;;;;5073188;28;20036;-72
2023/12/26 15:49:24;;;;;;;4.07;1.77;;;7.60;99.90;;;;;;5075063;28;20051;-72